Terminal Aerodrome Forecast
Issued by NWS Portland, OR

Home | Current Version | Previous Version | Text Only | Print | Product List | Glossary On
Versions: 1 2 3 4 5 6 7 8 9 10 11 12 13 14 15 16 17 18 19 20 21 22 23 24 25 26 27 28 29 30 31 32
000
FTUS46 KPQR 170525
TAFAST
TAF
KAST 170525Z 1706/1806 19003KT P6SM SCT035 SCT100 BKN250
     FM171200 19003KT P6SM SCT060 BKN100 BKN250
     FM171900 30007KT P6SM SCT045 BKN070 BKN100
     FM180000 29006KT P6SM VCSH BKN045 OVC070=

USA.gov is the U.S. government's official web portal to all federal, state and local government web resources and services.